Sanko Independence — A8QJ9 — position and weather

sailwx.info

Track history (hours):
 
Tides and Currents Weather Stations Pressure Air Temp Water Temp Dewpoint Dewpoint Depression Visibility Wind Speed Wind Dir Waves Ship Positions

Sanko Independence

Last reported at 2017-May-22 16:43 UTC. Time now 2017-May-26 22:48 UTC.
Position N 29°21' W 094°44'.

Length 174 m; draft 7.7 m.

Type: Ship (hazmat cat C). MMSI: 636013946.

Date/timePositionNaut miles runAvg speedWind from/ knotsBaromVisibWave heightAir tempDewpointWater temp
2017-May-22 16:43N 29°21' W 094°44'311.4
2017-May-22 16:29N 29°21' W 094°47'510.7
2017-May-22 16:00N 29°25' W 094°50'511.0
2017-May-22 15:31N 29°30' W 094°52'611.8
2017-May-22 15:01N 29°35' W 094°56'9 9.4
2017-May-22 14:01N 29°44' W 095°01'4 7.7
2017-May-22 13:31N 29°46' W 095°05'3 6.8
2017-May-22 13:01N 29°44' W 095°08'1 1.4
2017-May-22 12:30N 29°44' W 095°09'0 0.0
2017-May-22 12:00N 29°44' W 095°09'0 0.0
2017-May-22 11:27N 29°44' W 095°09'0 0.0
2017-May-22 11:00N 29°44' W 095°09'0 0.0
2017-May-22 10:30N 29°44' W 095°09'0 0.0
2017-May-22 09:57N 29°44' W 095°09'0 0.0
2017-May-22 09:30N 29°44' W 095°09'0 0.0
2017-May-22 09:00N 29°44' W 095°09'0 0.0
2017-May-22 08:24N 29°44' W 095°09'0 0.0
2017-May-22 08:00N 29°44' W 095°09'0 0.0
2017-May-22 07:30N 29°44' W 095°09'0 0.0
2017-May-22 07:00N 29°44' W 095°09'0 0.0
2017-May-22 06:30N 29°44' W 095°09'0 0.0
2017-May-22 06:00N 29°44' W 095°09'0 0.0
2017-May-22 05:30N 29°44' W 095°09'0 0.0
2017-May-22 05:00N 29°44' W 095°09'0 0.0
2017-May-22 04:30N 29°44' W 095°09'0 0.0
2017-May-22 04:00N 29°44' W 095°09'0 0.0
2017-May-22 03:30N 29°44' W 095°09'0 0.0
2017-May-22 03:00N 29°44' W 095°09'0 0.0
2017-May-22 02:30N 29°44' W 095°09'0 0.0
2017-May-22 02:00N 29°44' W 095°09'0 0.0
2017-May-22 01:30N 29°44' W 095°09'0 0.0
2017-May-22 01:00N 29°44' W 095°09'0 0.0
2017-May-22 00:30N 29°44' W 095°09'0 0.0
2017-May-22 00:00N 29°44' W 095°09'0 0.0
2017-May-21 23:27N 29°44' W 095°09'0 0.0
2017-May-21 23:00N 29°44' W 095°09'0 0.0
2017-May-21 22:30N 29°44' W 095°09'1 1.9
2017-May-21 22:01N 29°44' W 095°08'3 6.0
2017-May-21 21:31N 29°46' W 095°05'4 8.3
2017-May-21 21:01N 29°43' W 095°01'5 9.4
2017-May-21 20:31N 29°39' W 094°58'612.1
2017-May-21 20:01N 29°34' W 094°55'713.5
2017-May-21 19:31N 29°28' W 094°51'714.4
2017-May-21 19:00N 29°22' W 094°48'  
Track history (hours):
 
Tides and Currents Weather Stations Pressure Air Temp Water Temp Dewpoint Dewpoint Depression Visibility Wind Speed Wind Dir Waves Ship Positions

Sanko Independence

Last reported at 2017-May-22 16:43 UTC. Time now 2017-May-26 22:48 UTC.
Position N 29°21' W 094°44'.

Length 174 m; draft 7.7 m.

Type: Ship (hazmat cat C). MMSI: 636013946.

Date/timePositionNaut miles runAvg speedWind from/ knotsBaromVisibWave heightAir tempDewpointWater temp
2017-May-22 16:43N 29°21' W 094°44'311.4
2017-May-22 16:29N 29°21' W 094°47'510.7
2017-May-22 16:00N 29°25' W 094°50'511.0
2017-May-22 15:31N 29°30' W 094°52'611.8
2017-May-22 15:01N 29°35' W 094°56'9 9.4
2017-May-22 14:01N 29°44' W 095°01'4 7.7
2017-May-22 13:31N 29°46' W 095°05'3 6.8
2017-May-22 13:01N 29°44' W 095°08'1 1.4
2017-May-22 12:30N 29°44' W 095°09'0 0.0
2017-May-22 12:00N 29°44' W 095°09'0 0.0
2017-May-22 11:27N 29°44' W 095°09'0 0.0
2017-May-22 11:00N 29°44' W 095°09'0 0.0
2017-May-22 10:30N 29°44' W 095°09'0 0.0
2017-May-22 09:57N 29°44' W 095°09'0 0.0
2017-May-22 09:30N 29°44' W 095°09'0 0.0
2017-May-22 09:00N 29°44' W 095°09'0 0.0
2017-May-22 08:24N 29°44' W 095°09'0 0.0
2017-May-22 08:00N 29°44' W 095°09'0 0.0
2017-May-22 07:30N 29°44' W 095°09'0 0.0
2017-May-22 07:00N 29°44' W 095°09'0 0.0
2017-May-22 06:30N 29°44' W 095°09'0 0.0
2017-May-22 06:00N 29°44' W 095°09'0 0.0
2017-May-22 05:30N 29°44' W 095°09'0 0.0
2017-May-22 05:00N 29°44' W 095°09'0 0.0
2017-May-22 04:30N 29°44' W 095°09'0 0.0
2017-May-22 04:00N 29°44' W 095°09'0 0.0
2017-May-22 03:30N 29°44' W 095°09'0 0.0
2017-May-22 03:00N 29°44' W 095°09'0 0.0
2017-May-22 02:30N 29°44' W 095°09'0 0.0
2017-May-22 02:00N 29°44' W 095°09'0 0.0
2017-May-22 01:30N 29°44' W 095°09'0 0.0
2017-May-22 01:00N 29°44' W 095°09'0 0.0
2017-May-22 00:30N 29°44' W 095°09'0 0.0
2017-May-22 00:00N 29°44' W 095°09'0 0.0
2017-May-21 23:27N 29°44' W 095°09'0 0.0
2017-May-21 23:00N 29°44' W 095°09'0 0.0
2017-May-21 22:30N 29°44' W 095°09'1 1.9
2017-May-21 22:01N 29°44' W 095°08'3 6.0
2017-May-21 21:31N 29°46' W 095°05'4 8.3
2017-May-21 21:01N 29°43' W 095°01'5 9.4
2017-May-21 20:31N 29°39' W 094°58'612.1
2017-May-21 20:01N 29°34' W 094°55'713.5
2017-May-21 19:31N 29°28' W 094°51'714.4
2017-May-21 19:00N 29°22' W 094°48'  

Dump ship's entire track history